sensor_id;sensor_type;location;lat;lon;timestamp;pressure;altitude;pressure_sealevel;temperature;humidity
49515;BME280;35415;47.870;16.058;2023-08-30T00:01:39;96359.34;;;15.05;100.00
49515;BME280;35415;47.870;16.058;2023-08-30T00:04:11;96359.03;;;15.07;100.00
49515;BME280;35415;47.870;16.058;2023-08-30T00:06:38;96358.25;;;15.06;100.00
49515;BME280;35415;47.870;16.058;2023-08-30T00:09:09;96363.66;;;15.06;100.00
49515;BME280;35415;47.870;16.058;2023-08-30T00:11:38;96364.94;;;15.09;100.00
49515;BME280;35415;47.870;16.058;2023-08-30T00:14:09;96359.50;;;15.09;100.00
49515;BME280;35415;47.870;16.058;2023-08-30T00:16:36;96364.94;;;15.09;100.00
49515;BME280;35415;47.870;16.058;2023-08-30T00:19:05;96364.59;;;15.10;100.00
49515;BME280;35415;47.870;16.058;2023-08-30T00:21:34;96368.91;;;15.11;100.00
49515;BME280;35415;47.870;16.058;2023-08-30T00:24:01;96358.72;;;15.08;100.00
49515;BME280;35415;47.870;16.058;2023-08-30T00:26:28;96372.44;;;15.12;100.00
49515;BME280;35415;47.870;16.058;2023-08-30T00:28:55;96368.28;;;15.14;100.00
49515;BME280;35415;47.870;16.058;2023-08-30T00:31:22;96359.69;;;15.12;100.00
49515;BME280;35415;47.870;16.058;2023-08-30T00:33:49;96365.91;;;15.13;100.00
49515;BME280;35415;47.870;16.058;2023-08-30T00:36:16;96350.13;;;15.06;100.00
49515;BME280;35415;47.870;16.058;2023-08-30T00:38:46;96365.91;;;15.13;100.00
49515;BME280;35415;47.870;16.058;2023-08-30T00:41:13;96364.78;;;15.14;100.00
49515;BME280;35415;47.870;16.058;2023-08-30T00:43:40;96354.72;;;15.05;100.00
49515;BME280;35415;47.870;16.058;2023-08-30T00:46:07;96364.78;;;15.14;100.00
49515;BME280;35415;47.870;16.058;2023-08-30T00:48:34;96361.75;;;15.15;100.00
49515;BME280;35415;47.870;16.058;2023-08-30T00:51:02;96367.66;;;15.17;100.00
49515;BME280;35415;47.870;16.058;2023-08-30T00:53:29;96361.75;;;15.15;100.00
49515;BME280;35415;47.870;16.058;2023-08-30T00:55:57;96370.22;;;15.14;100.00
49515;BME280;35415;47.870;16.058;2023-08-30T00:58:25;96371.78;;;15.15;100.00
49515;BME280;35415;47.870;16.058;2023-08-30T01:00:53;96356.50;;;15.01;100.00
49515;BME280;35415;47.870;16.058;2023-08-30T01:03:21;96386.13;;;15.15;100.00
49515;BME280;35415;47.870;16.058;2023-08-30T01:05:48;96384.22;;;15.16;100.00
49515;BME280;35415;47.870;16.058;2023-08-30T01:08:15;96385.81;;;15.17;100.00
49515;BME280;35415;47.870;16.058;2023-08-30T01:10:51;96382.31;;;15.16;100.00
49515;BME280;35415;47.870;16.058;2023-08-30T01:13:21;96388.84;;;15.15;100.00
49515;BME280;35415;47.870;16.058;2023-08-30T01:15:48;96351.84;;;14.93;100.00
49515;BME280;35415;47.870;16.058;2023-08-30T01:18:18;96377.22;;;15.15;100.00
49515;BME280;35415;47.870;16.058;2023-08-30T01:20:47;96375.31;;;15.15;100.00
49515;BME280;35415;47.870;16.058;2023-08-30T01:23:23;96380.41;;;15.17;100.00
49515;BME280;35415;47.870;16.058;2023-08-30T01:25:55;96381.03;;;15.14;100.00
49515;BME280;35415;47.870;16.058;2023-08-30T01:28:27;96379.91;;;15.15;100.00
49515;BME280;35415;47.870;16.058;2023-08-30T01:30:57;96388.84;;;15.15;100.00
49515;BME280;35415;47.870;16.058;2023-08-30T01:33:26;96393.16;;;15.16;100.00
49515;BME280;35415;47.870;16.058;2023-08-30T01:35:55;96389.66;;;15.16;100.00
49515;BME280;35415;47.870;16.058;2023-08-30T01:38:25;96394.25;;;15.15;100.00
49515;BME280;35415;47.870;16.058;2023-08-30T01:40:54;96397.78;;;15.16;100.00
49515;BME280;35415;47.870;16.058;2023-08-30T01:43:25;96393.78;;;15.13;100.00
49515;BME280;35415;47.870;16.058;2023-08-30T01:45:54;96401.13;;;15.13;100.00
49515;BME280;35415;47.870;16.058;2023-08-30T01:48:23;96400.31;;;15.12;100.00
49515;BME280;35415;47.870;16.058;2023-08-30T01:50:51;96398.09;;;15.14;100.00
49515;BME280;35415;47.870;16.058;2023-08-30T01:53:20;96394.09;;;15.12;100.00
49515;BME280;35415;47.870;16.058;2023-08-30T01:55:48;96396.63;;;15.08;100.00
49515;BME280;35415;47.870;16.058;2023-08-30T01:58:15;96399.66;;;15.07;100.00
49515;BME280;35415;47.870;16.058;2023-08-30T02:00:44;96398.38;;;15.04;100.00
49515;BME280;35415;47.870;16.058;2023-08-30T02:03:12;96407.16;;;15.01;100.00
49515;BME280;35415;47.870;16.058;2023-08-30T02:05:57;96399.03;;;15.01;100.00
49515;BME280;35415;47.870;16.058;2023-08-30T02:08:36;96393.91;;;14.91;100.00
49515;BME280;35415;47.870;16.058;2023-08-30T02:11:07;96401.38;;;14.94;100.00
49515;BME280;35415;47.870;16.058;2023-08-30T02:13:39;96399.00;;;14.92;100.00
49515;BME280;35415;47.870;16.058;2023-08-30T02:16:10;96402.03;;;14.91;100.00
49515;BME280;35415;47.870;16.058;2023-08-30T02:18:39;96406.97;;;14.89;100.00
49515;BME280;35415;47.870;16.058;2023-08-30T02:21:07;96402.97;;;14.86;100.00
49515;BME280;35415;47.870;16.058;2023-08-30T02:23:34;96399.78;;;14.84;100.00
49515;BME280;35415;47.870;16.058;2023-08-30T02:26:02;96389.72;;;14.76;100.00
49515;BME280;35415;47.870;16.058;2023-08-30T02:28:29;96403.44;;;14.80;100.00
49515;BME280;35415;47.870;16.058;2023-08-30T02:30:56;96394.53;;;14.79;100.00
49515;BME280;35415;47.870;16.058;2023-08-30T02:33:25;96404.84;;;14.77;100.00
49515;BME280;35415;47.870;16.058;2023-08-30T02:35:52;96404.69;;;14.73;100.00
49515;BME280;35415;47.870;16.058;2023-08-30T02:38:20;96404.22;;;14.71;100.00
49515;BME280;35415;47.870;16.058;2023-08-30T02:40:47;96406.13;;;14.71;100.00
49515;BME280;35415;47.870;16.058;2023-08-30T02:43:14;96400.72;;;14.71;100.00
49515;BME280;35415;47.870;16.058;2023-08-30T02:45:41;96401.34;;;14.68;100.00
49515;BME280;35415;47.870;16.058;2023-08-30T02:48:09;96396.56;;;14.65;100.00
49515;BME280;35415;47.870;16.058;2023-08-30T02:50:37;96404.69;;;14.65;100.00
49515;BME280;35415;47.870;16.058;2023-08-30T02:53:04;96393.06;;;14.64;100.00
49515;BME280;35415;47.870;16.058;2023-08-30T02:55:33;96391.47;;;14.63;100.00
49515;BME280;35415;47.870;16.058;2023-08-30T02:58:01;96377.94;;;14.63;100.00
49515;BME280;35415;47.870;16.058;2023-08-30T03:00:28;96366.31;;;14.63;100.00
49515;BME280;35415;47.870;16.058;2023-08-30T03:02:55;96346.22;;;14.55;100.00
49515;BME280;35415;47.870;16.058;2023-08-30T03:05:25;96341.13;;;14.54;100.00
49515;BME280;35415;47.870;16.058;2023-08-30T03:07:54;96354.19;;;14.60;100.00
49515;BME280;35415;47.870;16.058;2023-08-30T03:10:21;96358.31;;;14.58;100.00
49515;BME280;35415;47.870;16.058;2023-08-30T03:12:48;96352.28;;;14.52;100.00
49515;BME280;35415;47.870;16.058;2023-08-30T03:15:15;96346.22;;;14.55;100.00
49515;BME280;35415;47.870;16.058;2023-08-30T03:17:42;96345.75;;;14.53;100.00
49515;BME280;35415;47.870;16.058;2023-08-30T03:20:11;96343.84;;;14.54;100.00
49515;BME280;35415;47.870;16.058;2023-08-30T03:22:42;96346.06;;;14.60;100.00
49515;BME280;35415;47.870;16.058;2023-08-30T03:25:11;96346.06;;;14.52;100.00
49515;BME280;35415;47.870;16.058;2023-08-30T03:27:38;96350.19;;;14.49;100.00
49515;BME280;35415;47.870;16.058;2023-08-30T03:30:07;96358.63;;;14.48;100.00
49515;BME280;35415;47.870;16.058;2023-08-30T03:32:34;96354.34;;;14.47;100.00
49515;BME280;35415;47.870;16.058;2023-08-30T03:35:02;96360.53;;;14.47;100.00
49515;BME280;35415;47.870;16.058;2023-08-30T03:37:30;96356.25;;;14.46;100.00
49515;BME280;35415;47.870;16.058;2023-08-30T03:39:57;96353.63;;;14.41;100.00
49515;BME280;35415;47.870;16.058;2023-08-30T03:42:26;96355.44;;;14.46;100.00
49515;BME280;35415;47.870;16.058;2023-08-30T03:44:53;96363.84;;;14.44;100.00
49515;BME280;35415;47.870;16.058;2023-08-30T03:47:20;96355.72;;;14.44;100.00
49515;BME280;35415;47.870;16.058;2023-08-30T03:49:47;96361.97;;;14.44;100.00
49515;BME280;35415;47.870;16.058;2023-08-30T03:52:15;96353.84;;;14.44;100.00
49515;BME280;35415;47.870;16.058;2023-08-30T03:54:42;96357.34;;;14.45;100.00
49515;BME280;35415;47.870;16.058;2023-08-30T03:57:09;96360.84;;;14.46;100.00
49515;BME280;35415;47.870;16.058;2023-08-30T03:59:38;96359.75;;;14.47;100.00
49515;BME280;35415;47.870;16.058;2023-08-30T04:02:07;96361.34;;;14.48;100.00
49515;BME280;35415;47.870;16.058;2023-08-30T04:04:34;96358.63;;;14.48;100.00
49515;BME280;35415;47.870;16.058;2023-08-30T04:07:02;96362.13;;;14.48;100.00
49515;BME280;35415;47.870;16.058;2023-08-30T04:09:29;96363.72;;;14.49;100.00
49515;BME280;35415;47.870;16.058;2023-08-30T04:11:56;96358.78;;;14.51;100.00
49515;BME280;35415;47.870;16.058;2023-08-30T04:14:23;96357.69;;;14.52;100.00
49515;BME280;35415;47.870;16.058;2023-08-30T04:16:54;96361.97;;;14.53;100.00
49515;BME280;35415;47.870;16.058;2023-08-30T04:19:24;96345.19;;;14.42;100.00
49515;BME280;35415;47.870;16.058;2023-08-30T04:21:52;96358.97;;;14.55;100.00
49515;BME280;35415;47.870;16.058;2023-08-30T04:24:25;96371.53;;;14.59;100.00
49515;BME280;35415;47.870;16.058;2023-08-30T04:26:56;96363.59;;;14.63;100.00
49515;BME280;35415;47.870;16.058;2023-08-30T04:29:23;96345.75;;;14.44;100.00
49515;BME280;35415;47.870;16.058;2023-08-30T04:31:52;96383.84;;;14.65;100.00
49515;BME280;35415;47.870;16.058;2023-08-30T04:34:23;96380.81;;;14.75;100.00
49515;BME280;35415;47.870;16.058;2023-08-30T04:36:50;96366.78;;;14.73;100.00
49515;BME280;35415;47.870;16.058;2023-08-30T04:39:18;96373.00;;;14.74;100.00
49515;BME280;35415;47.870;16.058;2023-08-30T04:41:45;96371.56;;;14.77;100.00
49515;BME280;35415;47.870;16.058;2023-08-30T04:44:12;96374.78;;;14.79;100.00
49515;BME280;35415;47.870;16.058;2023-08-30T04:46:39;96372.88;;;14.79;100.00
49515;BME280;35415;47.870;16.058;2023-08-30T04:49:08;96363.16;;;14.78;100.00
49515;BME280;35415;47.870;16.058;2023-08-30T04:51:35;96373.69;;;14.80;100.00
49515;BME280;35415;47.870;16.058;2023-08-30T04:54:02;96367.16;;;14.81;100.00
49515;BME280;35415;47.870;16.058;2023-08-30T04:56:29;96365.22;;;14.81;100.00
49515;BME280;35415;47.870;16.058;2023-08-30T04:58:56;96375.75;;;14.83;100.00
49515;BME280;35415;47.870;16.058;2023-08-30T05:01:24;96375.44;;;14.84;100.00
49515;BME280;35415;47.870;16.058;2023-08-30T05:03:51;96366.97;;;14.86;100.00
49515;BME280;35415;47.870;16.058;2023-08-30T05:06:20;96368.41;;;14.83;100.00
49515;BME280;35415;47.870;16.058;2023-08-30T05:08:46;96381.78;;;14.88;100.00
49515;BME280;35415;47.870;16.058;2023-08-30T05:11:14;96387.38;;;14.92;100.00
49515;BME280;35415;47.870;16.058;2023-08-30T05:13:41;96374.94;;;14.91;100.00
49515;BME280;35415;47.870;16.058;2023-08-30T05:16:08;96376.84;;;14.90;100.00
49515;BME280;35415;47.870;16.058;2023-08-30T05:18:35;96384.66;;;14.92;100.00
49515;BME280;35415;47.870;16.058;2023-08-30T05:21:03;96377.34;;;14.92;100.00
49515;BME280;35415;47.870;16.058;2023-08-30T05:23:32;96371.59;;;14.94;100.00
49515;BME280;35415;47.870;16.058;2023-08-30T05:25:59;96376.72;;;14.95;100.00
49515;BME280;35415;47.870;16.058;2023-08-30T05:28:27;96381.50;;;14.98;100.00
49515;BME280;35415;47.870;16.058;2023-08-30T05:30:54;96383.09;;;14.99;100.00
49515;BME280;35415;47.870;16.058;2023-08-30T05:33:21;96389.78;;;15.02;100.00
49515;BME280;35415;47.870;16.058;2023-08-30T05:35:48;96386.75;;;15.03;100.00
49515;BME280;35415;47.870;16.058;2023-08-30T05:38:15;96391.53;;;15.07;100.00
49515;BME280;35415;47.870;16.058;2023-08-30T05:40:43;96395.50;;;15.09;100.00
49515;BME280;35415;47.870;16.058;2023-08-30T05:43:10;96391.69;;;15.10;100.00
49515;BME280;35415;47.870;16.058;2023-08-30T05:45:37;96395.69;;;15.13;100.00
49515;BME280;35415;47.870;16.058;2023-08-30T05:48:05;96382.63;;;15.06;100.00
49515;BME280;35415;47.870;16.058;2023-08-30T05:50:32;96401.75;;;15.18;100.00
49515;BME280;35415;47.870;16.058;2023-08-30T05:52:59;96385.50;;;15.18;100.00
49515;BME280;35415;47.870;16.058;2023-08-30T05:55:27;96395.38;;;15.23;100.00
49515;BME280;35415;47.870;16.058;2023-08-30T05:57:56;96397.75;;;15.24;100.00
49515;BME280;35415;47.870;16.058;2023-08-30T06:00:23;96402.53;;;15.27;100.00
49515;BME280;35415;47.870;16.058;2023-08-30T06:02:51;96402.53;;;15.27;100.00
49515;BME280;35415;47.870;16.058;2023-08-30T06:05:18;96414.34;;;15.31;100.00
49515;BME280;35415;47.870;16.058;2023-08-30T06:07:45;96419.94;;;15.35;100.00
49515;BME280;35415;47.870;16.058;2023-08-30T06:10:12;96416.91;;;15.37;100.00
49515;BME280;35415;47.870;16.058;2023-08-30T06:12:39;96416.25;;;15.31;100.00
49515;BME280;35415;47.870;16.058;2023-08-30T06:15:09;96424.38;;;15.40;100.00
49515;BME280;35415;47.870;16.058;2023-08-30T06:17:36;96428.03;;;15.44;100.00
49515;BME280;35415;47.870;16.058;2023-08-30T06:20:04;96412.91;;;15.43;100.00
49515;BME280;35415;47.870;16.058;2023-08-30T06:22:31;96428.38;;;15.51;100.00
49515;BME280;35415;47.870;16.058;2023-08-30T06:24:58;96426.47;;;15.51;100.00
49515;BME280;35415;47.870;16.058;2023-08-30T06:27:25;96425.50;;;15.47;100.00
49515;BME280;35415;47.870;16.058;2023-08-30T06:29:53;96435.88;;;15.54;100.00
49515;BME280;35415;47.870;16.058;2023-08-30T06:32:21;96427.09;;;15.57;100.00
49515;BME280;35415;47.870;16.058;2023-08-30T06:34:49;96444.03;;;15.62;100.00
49515;BME280;35415;47.870;16.058;2023-08-30T06:37:16;96437.81;;;15.62;100.00
49515;BME280;35415;47.870;16.058;2023-08-30T06:39:43;96439.56;;;15.67;100.00
49515;BME280;35415;47.870;16.058;2023-08-30T06:42:10;96441.16;;;15.68;100.00
49515;BME280;35415;47.870;16.058;2023-08-30T06:44:37;96398.22;;;15.44;100.00
49515;BME280;35415;47.870;16.058;2023-08-30T06:47:06;96394.41;;;15.45;100.00
49515;BME280;35415;47.870;16.058;2023-08-30T06:49:35;96415.63;;;15.60;100.00
49515;BME280;35415;47.870;16.058;2023-08-30T06:52:02;96370.03;;;15.36;100.00
49515;BME280;35415;47.870;16.058;2023-08-30T06:54:34;96423.94;;;15.81;100.00
49515;BME280;35415;47.870;16.058;2023-08-30T06:57:01;96432.03;;;15.89;100.00
49515;BME280;35415;47.870;16.058;2023-08-30T06:59:33;96367.97;;;15.50;100.00
49515;BME280;35415;47.870;16.058;2023-08-30T07:02:01;96405.75;;;15.81;100.00
49515;BME280;35415;47.870;16.058;2023-08-30T07:04:28;96427.88;;;16.01;100.00
49515;BME280;35415;47.870;16.058;2023-08-30T07:06:58;96431.53;;;16.05;100.00
49515;BME280;35415;47.870;16.058;2023-08-30T07:09:25;96439.50;;;16.10;100.00
49515;BME280;35415;47.870;16.058;2023-08-30T07:11:57;96414.47;;;15.95;100.00
49515;BME280;35415;47.870;16.058;2023-08-30T07:14:24;96419.22;;;16.16;100.00
49515;BME280;35415;47.870;16.058;2023-08-30T07:16:51;96415.19;;;16.22;100.00
49515;BME280;35415;47.870;16.058;2023-08-30T07:19:24;96415.53;;;16.20;100.00
49515;BME280;35415;47.870;16.058;2023-08-30T07:21:51;96416.47;;;16.24;100.00
49515;BME280;35415;47.870;16.058;2023-08-30T07:24:23;96425.25;;;16.30;100.00
49515;BME280;35415;47.870;16.058;2023-08-30T07:26:51;96401.50;;;16.18;100.00
49515;BME280;35415;47.870;16.058;2023-08-30T07:29:21;96407.22;;;16.25;100.00
49515;BME280;35415;47.870;16.058;2023-08-30T07:31:48;96414.88;;;16.32;100.00
49515;BME280;35415;47.870;16.058;2023-08-30T07:34:21;96414.16;;;16.44;100.00
49515;BME280;35415;47.870;16.058;2023-08-30T07:36:48;96425.31;;;16.51;100.00
49515;BME280;35415;47.870;16.058;2023-08-30T07:39:15;96397.47;;;16.33;100.00
49515;BME280;35415;47.870;16.058;2023-08-30T07:41:45;96399.66;;;16.40;100.00
49515;BME280;35415;47.870;16.058;2023-08-30T07:44:13;96414.75;;;16.67;100.00
49515;BME280;35415;47.870;16.058;2023-08-30T07:46:40;96417.25;;;16.72;100.00
49515;BME280;35415;47.870;16.058;2023-08-30T07:49:08;96413.56;;;16.76;100.00
49515;BME280;35415;47.870;16.058;2023-08-30T07:51:35;96419.63;;;16.82;100.00
49515;BME280;35415;47.870;16.058;2023-08-30T07:54:02;96412.88;;;16.88;100.00
49515;BME280;35415;47.870;16.058;2023-08-30T07:56:29;96419.69;;;16.94;100.00
49515;BME280;35415;47.870;16.058;2023-08-30T07:59:00;96411.84;;;17.01;100.00
49515;BME280;35415;47.870;16.058;2023-08-30T08:01:28;96422.16;;;17.08;100.00
49515;BME280;35415;47.870;16.058;2023-08-30T08:03:55;96419.75;;;17.15;100.00
49515;BME280;35415;47.870;16.058;2023-08-30T08:06:22;96415.34;;;17.23;100.00
49515;BME280;35415;47.870;16.058;2023-08-30T08:08:49;96418.66;;;17.28;100.00
49515;BME280;35415;47.870;16.058;2023-08-30T08:11:16;96423.47;;;17.31;100.00
49515;BME280;35415;47.870;16.058;2023-08-30T08:13:43;96428.81;;;17.40;100.00
49515;BME280;35415;47.870;16.058;2023-08-30T08:16:12;96423.50;;;17.43;100.00
49515;BME280;35415;47.870;16.058;2023-08-30T08:18:40;96431.16;;;17.50;100.00
49515;BME280;35415;47.870;16.058;2023-08-30T08:21:07;96422.31;;;17.53;100.00
49515;BME280;35415;47.870;16.058;2023-08-30T08:23:34;96429.47;;;17.58;100.00
49515;BME280;35415;47.870;16.058;2023-08-30T08:26:01;96426.53;;;17.63;100.00
49515;BME280;35415;47.870;16.058;2023-08-30T08:28:29;96418.53;;;17.66;100.00
49515;BME280;35415;47.870;16.058;2023-08-30T08:30:57;96435.00;;;17.70;100.00
49515;BME280;35415;47.870;16.058;2023-08-30T08:33:25;96420.75;;;17.73;100.00
49515;BME280;35415;47.870;16.058;2023-08-30T08:35:56;96425.50;;;17.76;100.00
49515;BME280;35415;47.870;16.058;2023-08-30T08:38:23;96434.59;;;17.80;100.00
49515;BME280;35415;47.870;16.058;2023-08-30T08:40:52;96419.88;;;17.81;100.00
49515;BME280;35415;47.870;16.058;2023-08-30T08:43:20;96426.91;;;17.82;100.00
49515;BME280;35415;47.870;16.058;2023-08-30T08:45:49;96425.91;;;17.87;100.00
49515;BME280;35415;47.870;16.058;2023-08-30T08:48:16;96395.66;;;17.67;100.00
49515;BME280;35415;47.870;16.058;2023-08-30T08:50:45;96438.84;;;17.90;100.00
49515;BME280;35415;47.870;16.058;2023-08-30T08:53:13;96423.53;;;17.85;100.00
49515;BME280;35415;47.870;16.058;2023-08-30T08:55:43;96433.97;;;17.95;100.00
49515;BME280;35415;47.870;16.058;2023-08-30T08:58:12;96441.78;;;17.97;100.00
49515;BME280;35415;47.870;16.058;2023-08-30T09:00:42;96392.00;;;17.63;100.00
49515;BME280;35415;47.870;16.058;2023-08-30T09:03:11;96451.09;;;17.96;100.00
49515;BME280;35415;47.870;16.058;2023-08-30T09:05:38;96456.78;;;18.03;100.00
49515;BME280;35415;47.870;16.058;2023-08-30T09:08:09;96456.91;;;18.07;100.00
49515;BME280;35415;47.870;16.058;2023-08-30T09:10:37;96453.84;;;18.08;100.00
49515;BME280;35415;47.870;16.058;2023-08-30T09:13:05;96449.66;;;18.11;100.00
49515;BME280;35415;47.870;16.058;2023-08-30T09:15:32;96452.84;;;18.13;100.00
49515;BME280;35415;47.870;16.058;2023-08-30T09:18:00;96448.69;;;18.15;100.00
49515;BME280;35415;47.870;16.058;2023-08-30T09:20:29;96425.47;;;17.97;100.00
49515;BME280;35415;47.870;16.058;2023-08-30T09:23:05;96466.63;;;18.28;100.00
49515;BME280;35415;47.870;16.058;2023-08-30T09:25:44;96411.97;;;17.88;100.00
49515;BME280;35415;47.870;16.058;2023-08-30T09:28:12;96410.28;;;17.96;100.00
49515;BME280;35415;47.870;16.058;2023-08-30T09:30:41;96473.78;;;18.33;100.00
49515;BME280;35415;47.870;16.058;2023-08-30T09:33:08;96473.91;;;18.37;100.00
49515;BME280;35415;47.870;16.058;2023-08-30T09:35:45;96433.00;;;18.12;100.00
49515;BME280;35415;47.870;16.058;2023-08-30T09:38:20;96474.47;;;18.42;100.00
49515;BME280;35415;47.870;16.058;2023-08-30T09:40:50;96421.66;;;18.10;100.00
49515;BME280;35415;47.870;16.058;2023-08-30T09:43:19;96471.97;;;18.37;100.00
49515;BME280;35415;47.870;16.058;2023-08-30T09:45:50;96443.47;;;18.22;100.00
49515;BME280;35415;47.870;16.058;2023-08-30T09:48:20;96460.63;;;18.47;100.00
49515;BME280;35415;47.870;16.058;2023-08-30T09:50:53;96468.25;;;18.42;100.00
49515;BME280;35415;47.870;16.058;2023-08-30T09:53:24;96495.56;;;18.66;100.00
49515;BME280;35415;47.870;16.058;2023-08-30T09:55:55;96510.09;;;18.70;100.00
49515;BME280;35415;47.870;16.058;2023-08-30T09:58:23;96488.91;;;18.55;100.00
49515;BME280;35415;47.870;16.058;2023-08-30T10:00:53;96511.56;;;18.68;100.00
49515;BME280;35415;47.870;16.058;2023-08-30T10:03:21;96480.72;;;18.43;100.00
49515;BME280;35415;47.870;16.058;2023-08-30T10:05:51;96470.28;;;18.32;100.00
49515;BME280;35415;47.870;16.058;2023-08-30T10:08:21;96491.19;;;18.53;100.00
49515;BME280;35415;47.870;16.058;2023-08-30T10:10:58;96445.41;;;18.22;100.00
49515;BME280;35415;47.870;16.058;2023-08-30T10:13:26;96495.63;;;18.57;100.00
49515;BME280;35415;47.870;16.058;2023-08-30T10:15:59;96501.81;;;18.67;100.00
49515;BME280;35415;47.870;16.058;2023-08-30T10:18:29;96480.84;;;18.46;100.00
49515;BME280;35415;47.870;16.058;2023-08-30T10:20:59;96479.59;;;18.44;100.00
49515;BME280;35415;47.870;16.058;2023-08-30T10:23:37;96469.44;;;18.20;100.00
49515;BME280;35415;47.870;16.058;2023-08-30T10:26:07;96482.31;;;18.44;100.00
49515;BME280;35415;47.870;16.058;2023-08-30T10:28:37;96503.34;;;18.55;100.00
49515;BME280;35415;47.870;16.058;2023-08-30T10:31:05;96490.06;;;18.54;100.00
49515;BME280;35415;47.870;16.058;2023-08-30T10:33:46;96479.28;;;18.57;100.00
49515;BME280;35415;47.870;16.058;2023-08-30T10:36:20;96474.72;;;18.61;100.00
49515;BME280;35415;47.870;16.058;2023-08-30T10:38:49;96475.38;;;18.67;100.00
49515;BME280;35415;47.870;16.058;2023-08-30T10:41:21;96472.88;;;18.74;100.00
49515;BME280;35415;47.870;16.058;2023-08-30T10:43:50;96484.00;;;18.81;100.00
49515;BME280;35415;47.870;16.058;2023-08-30T10:46:29;96482.97;;;18.86;100.00
49515;BME280;35415;47.870;16.058;2023-08-30T10:49:09;96491.03;;;18.94;100.00
49515;BME280;35415;47.870;16.058;2023-08-30T10:51:38;96502.88;;;18.99;100.00
49515;BME280;35415;47.870;16.058;2023-08-30T10:54:12;96494.81;;;19.02;100.00
49515;BME280;35415;47.870;16.058;2023-08-30T10:56:48;96489.81;;;19.04;100.00
49515;BME280;35415;47.870;16.058;2023-08-30T10:59:18;96500.13;;;19.11;100.00
49515;BME280;35415;47.870;16.058;2023-08-30T11:01:46;96499.00;;;19.12;100.00
49515;BME280;35415;47.870;16.058;2023-08-30T11:04:15;96495.13;;;19.13;100.00
49515;BME280;35415;47.870;16.058;2023-08-30T11:06:44;96498.78;;;19.17;100.00
49515;BME280;35415;47.870;16.058;2023-08-30T11:09:17;96493.97;;;19.14;100.00
49515;BME280;35415;47.870;16.058;2023-08-30T11:11:47;96495.91;;;19.13;100.00
49515;BME280;35415;47.870;16.058;2023-08-30T11:14:16;96492.19;;;19.18;100.00
49515;BME280;35415;47.870;16.058;2023-08-30T11:16:44;96498.31;;;19.15;100.00
49515;BME280;35415;47.870;16.058;2023-08-30T11:19:12;96494.47;;;19.16;100.00
49515;BME280;35415;47.870;16.058;2023-08-30T11:21:43;96499.69;;;19.21;100.00
49515;BME280;35415;47.870;16.058;2023-08-30T11:24:11;96486.72;;;19.18;100.00
49515;BME280;35415;47.870;16.058;2023-08-30T11:26:39;96506.47;;;19.27;100.00
49515;BME280;35415;47.870;16.058;2023-08-30T11:29:09;96490.56;;;19.29;99.38
49515;BME280;35415;47.870;16.058;2023-08-30T11:31:36;96485.25;;;19.33;100.00
49515;BME280;35415;47.870;16.058;2023-08-30T11:34:04;96488.88;;;19.37;99.02
49515;BME280;35415;47.870;16.058;2023-08-30T11:36:35;96465.25;;;19.29;99.13
49515;BME280;35415;47.870;16.058;2023-08-30T11:39:04;96479.66;;;19.41;97.40
49515;BME280;35415;47.870;16.058;2023-08-30T11:41:35;96457.19;;;19.32;99.36
49515;BME280;35415;47.870;16.058;2023-08-30T11:44:09;96467.25;;;19.44;99.70
49515;BME280;35415;47.870;16.058;2023-08-30T11:46:37;96446.22;;;19.44;97.31
49515;BME280;35415;47.870;16.058;2023-08-30T11:49:05;96475.53;;;19.72;99.76
49515;BME280;35415;47.870;16.058;2023-08-30T11:51:33;96481.19;;;19.79;97.79
49515;BME280;35415;47.870;16.058;2023-08-30T11:54:01;96493.03;;;19.83;93.33
49515;BME280;35415;47.870;16.058;2023-08-30T11:56:30;96481.94;;;19.92;92.55
49515;BME280;35415;47.870;16.058;2023-08-30T11:58:58;96489.00;;;19.93;91.09
49515;BME280;35415;47.870;16.058;2023-08-30T12:01:27;96497.72;;;19.98;88.41
49515;BME280;35415;47.870;16.058;2023-08-30T12:03:56;96485.56;;;19.96;89.74
49515;BME280;35415;47.870;16.058;2023-08-30T12:06:24;96498.31;;;19.92;88.37
49515;BME280;35415;47.870;16.058;2023-08-30T12:08:58;96487.50;;;19.95;89.26
49515;BME280;35415;47.870;16.058;2023-08-30T12:11:26;96507.75;;;19.94;85.68
49515;BME280;35415;47.870;16.058;2023-08-30T12:14:02;96495.16;;;19.90;87.88
49515;BME280;35415;47.870;16.058;2023-08-30T12:16:32;96492.41;;;19.90;89.37
49515;BME280;35415;47.870;16.058;2023-08-30T12:19:10;96495.06;;;19.86;86.99
49515;BME280;35415;47.870;16.058;2023-08-30T12:21:41;96502.09;;;19.87;85.41
49515;BME280;35415;47.870;16.058;2023-08-30T12:24:10;96494.69;;;19.88;84.13
49515;BME280;35415;47.870;16.058;2023-08-30T12:26:38;96490.38;;;19.87;83.96
49515;BME280;35415;47.870;16.058;2023-08-30T12:29:06;96479.81;;;19.85;83.80
49515;BME280;35415;47.870;16.058;2023-08-30T12:31:36;96480.63;;;19.86;84.61
49515;BME280;35415;47.870;16.058;2023-08-30T12:34:06;96480.72;;;19.89;85.95
49515;BME280;35415;47.870;16.058;2023-08-30T12:36:35;96455.28;;;19.73;86.92
49515;BME280;35415;47.870;16.058;2023-08-30T12:39:02;96498.06;;;19.97;83.36
49515;BME280;35415;47.870;16.058;2023-08-30T12:41:31;96483.75;;;20.00;83.41
49515;BME280;35415;47.870;16.058;2023-08-30T12:43:59;96474.41;;;20.01;83.11
49515;BME280;35415;47.870;16.058;2023-08-30T12:46:28;96474.94;;;20.06;84.48
49515;BME280;35415;47.870;16.058;2023-08-30T12:48:57;96482.00;;;20.07;81.53